sensor_id;sensor_type;location;lat;lon;timestamp;P1;durP1;ratioP1;P2;durP2;ratioP2
4428;SDS011;2227;47.810;8.810;2024-02-28T04:51:26;780.40;;;555.35;;
4428;SDS011;2227;47.810;8.810;2024-02-28T04:53:53;776.00;;;556.53;;
4428;SDS011;2227;47.810;8.810;2024-02-28T04:56:19;764.90;;;562.08;;
4428;SDS011;2227;47.810;8.810;2024-02-28T04:58:49;763.03;;;558.17;;
4428;SDS011;2227;47.810;8.810;2024-02-28T05:01:17;754.70;;;563.83;;
4428;SDS011;2227;47.810;8.810;2024-02-28T05:03:47;755.75;;;563.50;;
4428;SDS011;2227;47.810;8.810;2024-02-28T05:06:14;759.38;;;561.40;;
4428;SDS011;2227;47.810;8.810;2024-02-28T05:08:41;762.70;;;560.60;;
4428;SDS011;2227;47.810;8.810;2024-02-28T05:11:07;755.08;;;557.03;;
4428;SDS011;2227;47.810;8.810;2024-02-28T05:13:35;749.80;;;569.58;;
4428;SDS011;2227;47.810;8.810;2024-02-28T05:16:01;748.45;;;566.92;;
4428;SDS011;2227;47.810;8.810;2024-02-28T05:18:29;749.85;;;567.45;;
4428;SDS011;2227;47.810;8.810;2024-02-28T05:20:55;746.70;;;581.97;;
4428;SDS011;2227;47.810;8.810;2024-02-28T05:23:22;745.50;;;581.03;;
4428;SDS011;2227;47.810;8.810;2024-02-28T05:25:49;747.50;;;567.03;;
4428;SDS011;2227;47.810;8.810;2024-02-28T05:28:16;746.30;;;576.85;;
4428;SDS011;2227;47.810;8.810;2024-02-28T05:30:43;754.17;;;574.17;;
4428;SDS011;2227;47.810;8.810;2024-02-28T05:33:14;758.53;;;569.97;;
4428;SDS011;2227;47.810;8.810;2024-02-28T05:35:41;754.13;;;568.65;;
4428;SDS011;2227;47.810;8.810;2024-02-28T05:38:07;755.45;;;564.95;;
4428;SDS011;2227;47.810;8.810;2024-02-28T05:40:34;759.85;;;566.55;;
4428;SDS011;2227;47.810;8.810;2024-02-28T05:43:01;752.13;;;569.95;;
4428;SDS011;2227;47.810;8.810;2024-02-28T05:45:28;753.28;;;568.35;;
4428;SDS011;2227;47.810;8.810;2024-02-28T05:47:55;752.63;;;566.13;;
4428;SDS011;2227;47.810;8.810;2024-02-28T05:50:22;755.90;;;560.15;;
4428;SDS011;2227;47.810;8.810;2024-02-28T05:52:49;753.05;;;567.88;;
4428;SDS011;2227;47.810;8.810;2024-02-28T05:55:15;754.20;;;568.40;;
4428;SDS011;2227;47.810;8.810;2024-02-28T05:57:43;753.47;;;561.28;;
4428;SDS011;2227;47.810;8.810;2024-02-28T06:00:10;762.92;;;567.60;;
4428;SDS011;2227;47.810;8.810;2024-02-28T06:02:37;758.38;;;565.65;;
4428;SDS011;2227;47.810;8.810;2024-02-28T06:05:04;761.92;;;558.72;;
4428;SDS011;2227;47.810;8.810;2024-02-28T06:07:32;760.88;;;559.08;;
4428;SDS011;2227;47.810;8.810;2024-02-28T06:09:58;762.13;;;558.60;;
4428;SDS011;2227;47.810;8.810;2024-02-28T06:12:26;760.03;;;556.55;;
4428;SDS011;2227;47.810;8.810;2024-02-28T06:14:52;758.35;;;559.03;;
4428;SDS011;2227;47.810;8.810;2024-02-28T06:17:20;756.93;;;558.47;;
4428;SDS011;2227;47.810;8.810;2024-02-28T06:19:48;759.55;;;564.13;;
4428;SDS011;2227;47.810;8.810;2024-02-28T06:22:15;751.95;;;557.78;;
4428;SDS011;2227;47.810;8.810;2024-02-28T06:24:47;749.72;;;563.72;;
4428;SDS011;2227;47.810;8.810;2024-02-28T06:27:15;749.83;;;557.63;;
4428;SDS011;2227;47.810;8.810;2024-02-28T06:29:42;752.97;;;561.10;;
4428;SDS011;2227;47.810;8.810;2024-02-28T06:32:09;757.70;;;572.17;;
4428;SDS011;2227;47.810;8.810;2024-02-28T06:34:35;753.33;;;564.97;;
4428;SDS011;2227;47.810;8.810;2024-02-28T06:37:02;752.88;;;562.25;;
4428;SDS011;2227;47.810;8.810;2024-02-28T06:39:30;752.55;;;561.67;;
4428;SDS011;2227;47.810;8.810;2024-02-28T06:41:57;753.15;;;558.42;;
4428;SDS011;2227;47.810;8.810;2024-02-28T06:44:24;748.00;;;565.85;;
4428;SDS011;2227;47.810;8.810;2024-02-28T06:46:51;763.17;;;575.53;;
4428;SDS011;2227;47.810;8.810;2024-02-28T06:49:17;750.80;;;576.60;;
4428;SDS011;2227;47.810;8.810;2024-02-28T06:51:44;747.50;;;564.33;;
4428;SDS011;2227;47.810;8.810;2024-02-28T06:54:11;752.33;;;573.33;;
4428;SDS011;2227;47.810;8.810;2024-02-28T06:56:38;755.03;;;561.35;;
4428;SDS011;2227;47.810;8.810;2024-02-28T06:59:05;753.70;;;568.50;;
4428;SDS011;2227;47.810;8.810;2024-02-28T07:01:33;753.60;;;566.80;;
4428;SDS011;2227;47.810;8.810;2024-02-28T07:04:00;754.40;;;566.58;;
4428;SDS011;2227;47.810;8.810;2024-02-28T07:06:27;756.50;;;566.38;;
4428;SDS011;2227;47.810;8.810;2024-02-28T07:08:54;760.88;;;570.13;;
4428;SDS011;2227;47.810;8.810;2024-02-28T07:11:21;755.72;;;561.17;;
4428;SDS011;2227;47.810;8.810;2024-02-28T07:13:48;757.58;;;565.28;;
4428;SDS011;2227;47.810;8.810;2024-02-28T07:16:14;759.20;;;571.17;;
4428;SDS011;2227;47.810;8.810;2024-02-28T07:18:41;755.47;;;565.27;;
4428;SDS011;2227;47.810;8.810;2024-02-28T07:21:08;759.55;;;575.80;;
4428;SDS011;2227;47.810;8.810;2024-02-28T07:23:35;765.10;;;562.63;;
4428;SDS011;2227;47.810;8.810;2024-02-28T07:26:05;766.03;;;568.08;;
4428;SDS011;2227;47.810;8.810;2024-02-28T07:28:44;765.78;;;563.90;;
4428;SDS011;2227;47.810;8.810;2024-02-28T07:31:16;762.55;;;568.08;;
4428;SDS011;2227;47.810;8.810;2024-02-28T07:33:43;761.50;;;565.80;;
4428;SDS011;2227;47.810;8.810;2024-02-28T07:36:10;760.58;;;569.72;;
4428;SDS011;2227;47.810;8.810;2024-02-28T07:38:37;756.03;;;564.40;;
4428;SDS011;2227;47.810;8.810;2024-02-28T07:41:04;761.60;;;573.97;;
4428;SDS011;2227;47.810;8.810;2024-02-28T07:43:31;760.90;;;576.72;;
4428;SDS011;2227;47.810;8.810;2024-02-28T07:46:09;758.55;;;573.63;;
4428;SDS011;2227;47.810;8.810;2024-02-28T07:48:37;758.75;;;571.47;;
4428;SDS011;2227;47.810;8.810;2024-02-28T07:51:05;759.40;;;576.05;;
4428;SDS011;2227;47.810;8.810;2024-02-28T07:53:32;762.75;;;577.33;;
4428;SDS011;2227;47.810;8.810;2024-02-28T07:55:59;764.42;;;573.50;;
4428;SDS011;2227;47.810;8.810;2024-02-28T07:58:26;765.78;;;571.90;;
4428;SDS011;2227;47.810;8.810;2024-02-28T08:00:52;768.33;;;571.42;;
4428;SDS011;2227;47.810;8.810;2024-02-28T08:03:20;765.50;;;582.47;;
4428;SDS011;2227;47.810;8.810;2024-02-28T08:05:47;764.50;;;576.90;;
4428;SDS011;2227;47.810;8.810;2024-02-28T08:08:14;760.40;;;581.10;;
4428;SDS011;2227;47.810;8.810;2024-02-28T08:10:41;762.50;;;585.80;;
4428;SDS011;2227;47.810;8.810;2024-02-28T08:13:08;760.83;;;589.90;;
4428;SDS011;2227;47.810;8.810;2024-02-28T08:15:35;760.00;;;595.58;;
4428;SDS011;2227;47.810;8.810;2024-02-28T08:18:02;766.42;;;609.63;;
4428;SDS011;2227;47.810;8.810;2024-02-28T08:20:29;768.87;;;622.40;;
4428;SDS011;2227;47.810;8.810;2024-02-28T08:22:56;768.42;;;628.22;;
4428;SDS011;2227;47.810;8.810;2024-02-28T08:25:24;768.08;;;635.60;;
4428;SDS011;2227;47.810;8.810;2024-02-28T08:27:51;768.78;;;648.72;;
4428;SDS011;2227;47.810;8.810;2024-02-28T08:30:18;754.20;;;648.20;;
4428;SDS011;2227;47.810;8.810;2024-02-28T08:32:44;749.27;;;650.43;;
4428;SDS011;2227;47.810;8.810;2024-02-28T08:35:11;749.20;;;660.20;;
4428;SDS011;2227;47.810;8.810;2024-02-28T08:37:38;747.30;;;656.60;;
4428;SDS011;2227;47.810;8.810;2024-02-28T08:40:06;743.70;;;659.20;;
4428;SDS011;2227;47.810;8.810;2024-02-28T08:42:33;745.80;;;663.40;;
4428;SDS011;2227;47.810;8.810;2024-02-28T08:45:00;745.10;;;662.65;;
4428;SDS011;2227;47.810;8.810;2024-02-28T08:49:56;742.00;;;659.60;;
4428;SDS011;2227;47.810;8.810;2024-02-28T08:54:49;763.90;;;680.90;;
4428;SDS011;2227;47.810;8.810;2024-02-28T08:57:16;766.00;;;683.30;;
4428;SDS011;2227;47.810;8.810;2024-02-28T09:02:10;798.90;;;714.80;;
4428;SDS011;2227;47.810;8.810;2024-02-28T09:04:37;797.77;;;713.03;;
4428;SDS011;2227;47.810;8.810;2024-02-28T09:07:04;811.72;;;726.17;;
4428;SDS011;2227;47.810;8.810;2024-02-28T09:09:31;819.60;;;734.97;;
4428;SDS011;2227;47.810;8.810;2024-02-28T09:14:29;855.40;;;769.95;;
4428;SDS011;2227;47.810;8.810;2024-02-28T09:26:51;876.00;;;790.20;;
4428;SDS011;2227;47.810;8.810;2024-02-28T09:31:44;875.90;;;789.95;;
4428;SDS011;2227;47.810;8.810;2024-02-28T09:34:11;905.45;;;819.45;;
4428;SDS011;2227;47.810;8.810;2024-02-28T09:41:39;933.80;;;848.75;;
4428;SDS011;2227;47.810;8.810;2024-02-28T09:44:07;931.00;;;845.60;;
4428;SDS011;2227;47.810;8.810;2024-02-28T09:46:35;926.47;;;840.35;;
4428;SDS011;2227;47.810;8.810;2024-02-28T09:49:04;923.23;;;836.70;;
4428;SDS011;2227;47.810;8.810;2024-02-28T09:51:32;913.97;;;827.78;;
4428;SDS011;2227;47.810;8.810;2024-02-28T09:54:03;895.00;;;809.20;;
4428;SDS011;2227;47.810;8.810;2024-02-28T09:56:31;884.42;;;798.50;;
4428;SDS011;2227;47.810;8.810;2024-02-28T09:58:59;878.65;;;792.78;;
4428;SDS011;2227;47.810;8.810;2024-02-28T10:01:29;860.25;;;774.10;;
4428;SDS011;2227;47.810;8.810;2024-02-28T10:03:57;828.77;;;743.63;;
4428;SDS011;2227;47.810;8.810;2024-02-28T10:06:27;819.80;;;734.40;;
4428;SDS011;2227;47.810;8.810;2024-02-28T10:08:54;803.10;;;718.50;;
4428;SDS011;2227;47.810;8.810;2024-02-28T10:11:21;809.30;;;724.38;;
4428;SDS011;2227;47.810;8.810;2024-02-28T10:13:49;805.30;;;720.83;;
4428;SDS011;2227;47.810;8.810;2024-02-28T10:16:16;818.15;;;733.70;;
4428;SDS011;2227;47.810;8.810;2024-02-28T10:18:43;819.90;;;735.45;;
4428;SDS011;2227;47.810;8.810;2024-02-28T10:21:11;814.35;;;730.15;;
4428;SDS011;2227;47.810;8.810;2024-02-28T10:23:38;821.95;;;736.60;;
4428;SDS011;2227;47.810;8.810;2024-02-28T10:26:08;816.75;;;731.78;;
4428;SDS011;2227;47.810;8.810;2024-02-28T10:28:36;815.53;;;730.25;;
4428;SDS011;2227;47.810;8.810;2024-02-28T10:31:04;813.33;;;727.88;;
4428;SDS011;2227;47.810;8.810;2024-02-28T10:33:34;810.80;;;725.30;;
4428;SDS011;2227;47.810;8.810;2024-02-28T10:36:03;801.28;;;715.83;;
4428;SDS011;2227;47.810;8.810;2024-02-28T10:38:31;792.40;;;708.22;;
4428;SDS011;2227;47.810;8.810;2024-02-28T10:41:05;806.95;;;723.05;;
4428;SDS011;2227;47.810;8.810;2024-02-28T10:43:35;814.00;;;730.53;;
4428;SDS011;2227;47.810;8.810;2024-02-28T10:46:02;825.07;;;740.07;;
4428;SDS011;2227;47.810;8.810;2024-02-28T10:48:50;823.97;;;739.70;;
4428;SDS011;2227;47.810;8.810;2024-02-28T10:51:20;826.47;;;741.45;;
4428;SDS011;2227;47.810;8.810;2024-02-28T10:54:10;823.05;;;737.95;;
4428;SDS011;2227;47.810;8.810;2024-02-28T10:56:40;815.97;;;731.23;;
4428;SDS011;2227;47.810;8.810;2024-02-28T10:59:09;817.70;;;732.92;;
4428;SDS011;2227;47.810;8.810;2024-02-28T11:01:39;811.22;;;725.92;;
4428;SDS011;2227;47.810;8.810;2024-02-28T11:04:11;803.85;;;718.60;;
4428;SDS011;2227;47.810;8.810;2024-02-28T11:06:49;805.42;;;720.58;;
4428;SDS011;2227;47.810;8.810;2024-02-28T11:09:19;779.38;;;694.35;;
4428;SDS011;2227;47.810;8.810;2024-02-28T11:11:50;771.92;;;687.35;;
4428;SDS011;2227;47.810;8.810;2024-02-28T11:14:17;768.08;;;683.88;;
4428;SDS011;2227;47.810;8.810;2024-02-28T11:16:59;773.57;;;688.90;;
4428;SDS011;2227;47.810;8.810;2024-02-28T11:19:27;782.20;;;697.90;;
4428;SDS011;2227;47.810;8.810;2024-02-28T11:21:56;783.42;;;698.85;;
4428;SDS011;2227;47.810;8.810;2024-02-28T11:24:24;781.60;;;696.97;;
4428;SDS011;2227;47.810;8.810;2024-02-28T11:26:54;787.20;;;702.08;;
4428;SDS011;2227;47.810;8.810;2024-02-28T11:29:25;795.15;;;710.22;;
4428;SDS011;2227;47.810;8.810;2024-02-28T11:31:53;808.85;;;723.38;;
4428;SDS011;2227;47.810;8.810;2024-02-28T11:34:20;810.55;;;725.08;;
4428;SDS011;2227;47.810;8.810;2024-02-28T11:36:50;807.65;;;722.05;;
4428;SDS011;2227;47.810;8.810;2024-02-28T11:39:19;820.13;;;734.60;;
4428;SDS011;2227;47.810;8.810;2024-02-28T11:41:47;818.13;;;733.00;;
4428;SDS011;2227;47.810;8.810;2024-02-28T11:44:15;825.70;;;740.67;;
4428;SDS011;2227;47.810;8.810;2024-02-28T11:46:46;840.55;;;755.45;;
4428;SDS011;2227;47.810;8.810;2024-02-28T11:49:14;857.22;;;771.60;;
4428;SDS011;2227;47.810;8.810;2024-02-28T11:51:42;869.42;;;783.42;;
4428;SDS011;2227;47.810;8.810;2024-02-28T11:54:10;880.65;;;794.75;;
4428;SDS011;2227;47.810;8.810;2024-02-28T11:56:37;876.03;;;790.27;;
4428;SDS011;2227;47.810;8.810;2024-02-28T11:59:05;889.75;;;803.25;;
4428;SDS011;2227;47.810;8.810;2024-02-28T12:04:03;915.30;;;828.30;;
4428;SDS011;2227;47.810;8.810;2024-02-28T12:13:55;909.83;;;823.30;;
4428;SDS011;2227;47.810;8.810;2024-02-28T12:16:23;914.05;;;828.55;;
4428;SDS011;2227;47.810;8.810;2024-02-28T12:23:49;932.13;;;845.53;;
4428;SDS011;2227;47.810;8.810;2024-02-28T12:38:32;927.20;;;841.30;;
4428;SDS011;2227;47.810;8.810;2024-02-28T12:40:59;926.80;;;841.30;;
4428;SDS011;2227;47.810;8.810;2024-02-28T12:43:26;923.87;;;838.23;;
4428;SDS011;2227;47.810;8.810;2024-02-28T12:45:53;927.23;;;841.60;;
4428;SDS011;2227;47.810;8.810;2024-02-28T12:48:20;924.10;;;838.40;;
4428;SDS011;2227;47.810;8.810;2024-02-28T12:50:47;913.92;;;828.53;;
4428;SDS011;2227;47.810;8.810;2024-02-28T12:53:14;913.25;;;827.28;;
4428;SDS011;2227;47.810;8.810;2024-02-28T12:55:41;910.08;;;823.67;;
4428;SDS011;2227;47.810;8.810;2024-02-28T12:58:08;900.55;;;814.75;;
4428;SDS011;2227;47.810;8.810;2024-02-28T13:00:35;882.05;;;796.33;;
4428;SDS011;2227;47.810;8.810;2024-02-28T13:03:02;884.50;;;798.72;;
4428;SDS011;2227;47.810;8.810;2024-02-28T13:05:31;880.90;;;794.95;;
4428;SDS011;2227;47.810;8.810;2024-02-28T13:07:58;880.03;;;794.38;;
4428;SDS011;2227;47.810;8.810;2024-02-28T13:10:25;874.85;;;789.65;;
4428;SDS011;2227;47.810;8.810;2024-02-28T13:12:52;869.40;;;784.45;;
4428;SDS011;2227;47.810;8.810;2024-02-28T13:15:19;875.40;;;790.57;;
4428;SDS011;2227;47.810;8.810;2024-02-28T13:17:46;868.08;;;783.47;;
4428;SDS011;2227;47.810;8.810;2024-02-28T13:20:16;876.35;;;791.58;;
4428;SDS011;2227;47.810;8.810;2024-02-28T13:22:43;873.65;;;788.85;;
4428;SDS011;2227;47.810;8.810;2024-02-28T13:25:11;871.53;;;786.60;;
4428;SDS011;2227;47.810;8.810;2024-02-28T13:27:40;878.33;;;793.20;;
4428;SDS011;2227;47.810;8.810;2024-02-28T13:30:07;877.88;;;792.65;;
4428;SDS011;2227;47.810;8.810;2024-02-28T13:32:34;877.10;;;791.97;;
4428;SDS011;2227;47.810;8.810;2024-02-28T13:35:01;867.92;;;782.58;;
4428;SDS011;2227;47.810;8.810;2024-02-28T13:37:28;877.92;;;792.25;;
4428;SDS011;2227;47.810;8.810;2024-02-28T13:39:55;870.22;;;784.65;;
4428;SDS011;2227;47.810;8.810;2024-02-28T13:42:22;875.45;;;789.15;;
4428;SDS011;2227;47.810;8.810;2024-02-28T13:44:50;854.63;;;768.05;;
4428;SDS011;2227;47.810;8.810;2024-02-28T13:47:17;853.55;;;767.33;;
4428;SDS011;2227;47.810;8.810;2024-02-28T13:49:44;836.35;;;750.72;;
4428;SDS011;2227;47.810;8.810;2024-02-28T13:52:11;836.35;;;750.55;;
4428;SDS011;2227;47.810;8.810;2024-02-28T13:54:38;820.80;;;734.70;;
4428;SDS011;2227;47.810;8.810;2024-02-28T13:57:05;823.47;;;737.65;;
4428;SDS011;2227;47.810;8.810;2024-02-28T13:59:34;825.33;;;739.33;;
4428;SDS011;2227;47.810;8.810;2024-02-28T14:02:01;817.05;;;731.50;;
4428;SDS011;2227;47.810;8.810;2024-02-28T14:04:28;819.15;;;732.95;;
4428;SDS011;2227;47.810;8.810;2024-02-28T14:06:55;824.17;;;737.97;;
4428;SDS011;2227;47.810;8.810;2024-02-28T14:09:22;822.47;;;735.88;;
4428;SDS011;2227;47.810;8.810;2024-02-28T14:11:49;810.97;;;724.58;;
4428;SDS011;2227;47.810;8.810;2024-02-28T14:14:16;810.85;;;725.10;;
4428;SDS011;2227;47.810;8.810;2024-02-28T14:16:43;803.97;;;718.38;;
4428;SDS011;2227;47.810;8.810;2024-02-28T14:19:10;809.87;;;724.47;;
4428;SDS011;2227;47.810;8.810;2024-02-28T14:21:37;806.65;;;721.00;;
4428;SDS011;2227;47.810;8.810;2024-02-28T14:24:04;805.40;;;719.17;;
4428;SDS011;2227;47.810;8.810;2024-02-28T14:26:31;808.17;;;721.95;;
4428;SDS011;2227;47.810;8.810;2024-02-28T14:28:58;804.55;;;718.95;;
4428;SDS011;2227;47.810;8.810;2024-02-28T14:31:25;809.33;;;724.33;;
4428;SDS011;2227;47.810;8.810;2024-02-28T14:33:52;804.13;;;718.80;;
4428;SDS011;2227;47.810;8.810;2024-02-28T14:36:21;815.05;;;729.55;;
4428;SDS011;2227;47.810;8.810;2024-02-28T14:38:47;811.13;;;726.38;;
4428;SDS011;2227;47.810;8.810;2024-02-28T14:41:14;816.75;;;732.10;;
4428;SDS011;2227;47.810;8.810;2024-02-28T14:43:41;821.77;;;736.53;;
4428;SDS011;2227;47.810;8.810;2024-02-28T14:46:08;823.10;;;736.85;;
4428;SDS011;2227;47.810;8.810;2024-02-28T14:48:36;819.20;;;733.72;;
4428;SDS011;2227;47.810;8.810;2024-02-28T14:51:04;814.00;;;730.05;;
4428;SDS011;2227;47.810;8.810;2024-02-28T14:53:31;825.85;;;740.97;;
4428;SDS011;2227;47.810;8.810;2024-02-28T14:55:57;818.15;;;732.95;;
4428;SDS011;2227;47.810;8.810;2024-02-28T14:58:24;813.13;;;727.55;;
4428;SDS011;2227;47.810;8.810;2024-02-28T15:00:51;808.28;;;723.17;;
4428;SDS011;2227;47.810;8.810;2024-02-28T15:03:18;809.30;;;723.42;;
4428;SDS011;2227;47.810;8.810;2024-02-28T15:05:46;792.70;;;707.53;;
4428;SDS011;2227;47.810;8.810;2024-02-28T15:08:14;785.22;;;699.88;;
4428;SDS011;2227;47.810;8.810;2024-02-28T15:10:42;785.22;;;700.75;;
4428;SDS011;2227;47.810;8.810;2024-02-28T15:13:09;773.63;;;689.60;;
4428;SDS011;2227;47.810;8.810;2024-02-28T15:15:36;804.25;;;719.55;;
4428;SDS011;2227;47.810;8.810;2024-02-28T15:18:07;776.03;;;691.58;;
4428;SDS011;2227;47.810;8.810;2024-02-28T15:20:34;778.17;;;694.03;;
4428;SDS011;2227;47.810;8.810;2024-02-28T15:23:01;770.67;;;686.70;;
4428;SDS011;2227;47.810;8.810;2024-02-28T15:25:29;775.67;;;690.78;;
4428;SDS011;2227;47.810;8.810;2024-02-28T15:27:56;768.73;;;684.03;;
4428;SDS011;2227;47.810;8.810;2024-02-28T15:30:23;768.10;;;684.20;;
4428;SDS011;2227;47.810;8.810;2024-02-28T15:32:50;768.60;;;684.38;;
4428;SDS011;2227;47.810;8.810;2024-02-28T15:35:17;775.83;;;691.45;;
4428;SDS011;2227;47.810;8.810;2024-02-28T15:37:43;771.50;;;687.08;;
4428;SDS011;2227;47.810;8.810;2024-02-28T15:40:10;769.45;;;684.92;;
4428;SDS011;2227;47.810;8.810;2024-02-28T15:42:37;772.40;;;687.63;;
4428;SDS011;2227;47.810;8.810;2024-02-28T15:45:04;771.75;;;686.40;;
4428;SDS011;2227;47.810;8.810;2024-02-28T15:47:32;772.58;;;687.60;;
4428;SDS011;2227;47.810;8.810;2024-02-28T15:49:59;770.75;;;685.92;;
4428;SDS011;2227;47.810;8.810;2024-02-28T15:52:28;767.20;;;682.80;;
4428;SDS011;2227;47.810;8.810;2024-02-28T15:54:55;771.25;;;678.63;;
4428;SDS011;2227;47.810;8.810;2024-02-28T15:57:23;766.35;;;676.78;;
4428;SDS011;2227;47.810;8.810;2024-02-28T15:59:50;763.40;;;678.38;;
4428;SDS011;2227;47.810;8.810;2024-02-28T16:02:17;767.33;;;682.50;;
4428;SDS011;2227;47.810;8.810;2024-02-28T16:04:43;762.40;;;673.13;;
4428;SDS011;2227;47.810;8.810;2024-02-28T16:07:12;766.88;;;678.03;;
4428;SDS011;2227;47.810;8.810;2024-02-28T16:09:38;768.33;;;674.05;;
4428;SDS011;2227;47.810;8.810;2024-02-28T16:12:07;765.55;;;674.65;;
4428;SDS011;2227;47.810;8.810;2024-02-28T16:14:34;765.00;;;680.10;;
4428;SDS011;2227;47.810;8.810;2024-02-28T16:17:01;757.13;;;672.35;;
4428;SDS011;2227;47.810;8.810;2024-02-28T16:19:28;758.70;;;669.58;;
4428;SDS011;2227;47.810;8.810;2024-02-28T16:21:55;762.20;;;677.10;;
4428;SDS011;2227;47.810;8.810;2024-02-28T16:24:22;763.22;;;677.65;;
4428;SDS011;2227;47.810;8.810;2024-02-28T16:26:49;758.08;;;671.95;;
4428;SDS011;2227;47.810;8.810;2024-02-28T16:29:16;769.00;;;682.33;;
4428;SDS011;2227;47.810;8.810;2024-02-28T16:31:43;762.35;;;674.40;;
4428;SDS011;2227;47.810;8.810;2024-02-28T16:34:15;760.90;;;676.45;;
4428;SDS011;2227;47.810;8.810;2024-02-28T16:36:43;761.63;;;667.28;;
4428;SDS011;2227;47.810;8.810;2024-02-28T16:39:10;758.13;;;667.50;;
4428;SDS011;2227;47.810;8.810;2024-02-28T16:41:39;749.75;;;664.63;;
4428;SDS011;2227;47.810;8.810;2024-02-28T16:44:06;751.22;;;668.10;;
4428;SDS011;2227;47.810;8.810;2024-02-28T16:46:33;747.67;;;664.78;;
4428;SDS011;2227;47.810;8.810;2024-02-28T16:49:00;747.63;;;664.27;;
4428;SDS011;2227;47.810;8.810;2024-02-28T16:51:27;747.80;;;665.28;;
4428;SDS011;2227;47.810;8.810;2024-02-28T16:53:54;749.90;;;667.60;;
4428;SDS011;2227;47.810;8.810;2024-02-28T16:56:21;749.67;;;667.67;;
4428;SDS011;2227;47.810;8.810;2024-02-28T16:58:47;746.50;;;664.40;;
4428;SDS011;2227;47.810;8.810;2024-02-28T17:01:14;740.50;;;656.72;;
4428;SDS011;2227;47.810;8.810;2024-02-28T17:03:42;743.00;;;658.43;;
4428;SDS011;2227;47.810;8.810;2024-02-28T17:06:12;746.05;;;659.72;;
4428;SDS011;2227;47.810;8.810;2024-02-28T17:08:38;754.33;;;671.28;;
4428;SDS011;2227;47.810;8.810;2024-02-28T17:11:05;746.50;;;663.90;;
4428;SDS011;2227;47.810;8.810;2024-02-28T17:13:32;751.42;;;668.28;;
4428;SDS011;2227;47.810;8.810;2024-02-28T17:15:59;750.78;;;667.67;;
4428;SDS011;2227;47.810;8.810;2024-02-28T17:18:30;742.37;;;660.37;;
4428;SDS011;2227;47.810;8.810;2024-02-28T17:21:00;738.37;;;656.33;;
4428;SDS011;2227;47.810;8.810;2024-02-28T17:23:28;745.58;;;663.53;;
4428;SDS011;2227;47.810;8.810;2024-02-28T17:25:55;743.47;;;660.10;;
4428;SDS011;2227;47.810;8.810;2024-02-28T17:28:22;745.95;;;663.20;;
4428;SDS011;2227;47.810;8.810;2024-02-28T17:30:49;742.95;;;661.22;;
4428;SDS011;2227;47.810;8.810;2024-02-28T17:33:16;748.47;;;666.42;;
4428;SDS011;2227;47.810;8.810;2024-02-28T17:35:44;750.78;;;667.75;;
4428;SDS011;2227;47.810;8.810;2024-02-28T17:38:10;752.70;;;669.58;;
4428;SDS011;2227;47.810;8.810;2024-02-28T17:40:37;751.20;;;667.93;;
4428;SDS011;2227;47.810;8.810;2024-02-28T17:43:04;752.53;;;669.83;;
4428;SDS011;2227;47.810;8.810;2024-02-28T17:45:32;753.33;;;670.85;;
4428;SDS011;2227;47.810;8.810;2024-02-28T17:47:59;746.25;;;663.63;;
4428;SDS011;2227;47.810;8.810;2024-02-28T17:50:25;741.75;;;656.60;;
4428;SDS011;2227;47.810;8.810;2024-02-28T17:52:53;742.15;;;659.75;;
4428;SDS011;2227;47.810;8.810;2024-02-28T17:55:20;746.35;;;663.65;;
4428;SDS011;2227;47.810;8.810;2024-02-28T17:57:47;746.70;;;663.95;;
4428;SDS011;2227;47.810;8.810;2024-02-28T18:00:17;751.20;;;664.63;;
4428;SDS011;2227;47.810;8.810;2024-02-28T18:02:48;751.03;;;657.13;;
4428;SDS011;2227;47.810;8.810;2024-02-28T18:05:15;749.50;;;654.63;;
4428;SDS011;2227;47.810;8.810;2024-02-28T18:07:42;750.17;;;657.15;;
4428;SDS011;2227;47.810;8.810;2024-02-28T18:10:09;752.60;;;659.13;;
4428;SDS011;2227;47.810;8.810;2024-02-28T18:12:39;750.90;;;657.97;;
4428;SDS011;2227;47.810;8.810;2024-02-28T18:15:06;759.97;;;657.05;;
4428;SDS011;2227;47.810;8.810;2024-02-28T18:17:33;758.22;;;659.90;;
4428;SDS011;2227;47.810;8.810;2024-02-28T18:20:01;756.05;;;658.10;;
4428;SDS011;2227;47.810;8.810;2024-02-28T18:22:31;755.17;;;660.72;;
4428;SDS011;2227;47.810;8.810;2024-02-28T18:24:58;749.03;;;654.65;;
4428;SDS011;2227;47.810;8.810;2024-02-28T18:27:27;752.00;;;659.85;;
4428;SDS011;2227;47.810;8.810;2024-02-28T18:29:54;754.53;;;665.42;;
4428;SDS011;2227;47.810;8.810;2024-02-28T18:32:21;763.85;;;668.40;;
4428;SDS011;2227;47.810;8.810;2024-02-28T18:34:48;762.30;;;668.25;;
4428;SDS011;2227;47.810;8.810;2024-02-28T18:37:18;762.78;;;668.15;;
4428;SDS011;2227;47.810;8.810;2024-02-28T18:39:45;756.22;;;658.67;;
4428;SDS011;2227;47.810;8.810;2024-02-28T18:42:12;757.17;;;664.47;;
4428;SDS011;2227;47.810;8.810;2024-02-28T18:44:38;751.38;;;666.90;;
4428;SDS011;2227;47.810;8.810;2024-02-28T18:47:05;749.75;;;665.22;;
4428;SDS011;2227;47.810;8.810;2024-02-28T18:49:32;749.40;;;665.83;;
4428;SDS011;2227;47.810;8.810;2024-02-28T18:51:59;746.35;;;660.90;;
4428;SDS011;2227;47.810;8.810;2024-02-28T18:54:26;746.38;;;663.95;;
4428;SDS011;2227;47.810;8.810;2024-02-28T18:56:54;743.67;;;661.22;;
4428;SDS011;2227;47.810;8.810;2024-02-28T18:59:21;748.10;;;665.60;;
4428;SDS011;2227;47.810;8.810;2024-02-28T19:01:48;741.95;;;659.75;;
4428;SDS011;2227;47.810;8.810;2024-02-28T19:04:16;743.40;;;660.92;;
4428;SDS011;2227;47.810;8.810;2024-02-28T19:06:46;751.15;;;664.97;;
4428;SDS011;2227;47.810;8.810;2024-02-28T19:09:14;743.92;;;661.35;;
4428;SDS011;2227;47.810;8.810;2024-02-28T19:11:41;737.70;;;655.80;;
4428;SDS011;2227;47.810;8.810;2024-02-28T19:14:08;738.08;;;647.58;;
4428;SDS011;2227;47.810;8.810;2024-02-28T19:16:35;737.42;;;650.67;;
4428;SDS011;2227;47.810;8.810;2024-02-28T19:19:01;738.75;;;652.65;;
4428;SDS011;2227;47.810;8.810;2024-02-28T19:21:28;740.08;;;657.83;;
4428;SDS011;2227;47.810;8.810;2024-02-28T19:23:57;738.47;;;650.08;;
4428;SDS011;2227;47.810;8.810;2024-02-28T19:26:24;755.97;;;657.58;;
4428;SDS011;2227;47.810;8.810;2024-02-28T19:28:52;748.47;;;662.38;;
4428;SDS011;2227;47.810;8.810;2024-02-28T19:31:19;739.63;;;653.70;;
4428;SDS011;2227;47.810;8.810;2024-02-28T19:33:45;738.67;;;653.30;;
4428;SDS011;2227;47.810;8.810;2024-02-28T19:36:12;733.95;;;652.08;;
4428;SDS011;2227;47.810;8.810;2024-02-28T19:38:40;739.47;;;654.00;;
4428;SDS011;2227;47.810;8.810;2024-02-28T19:41:09;741.47;;;657.35;;
4428;SDS011;2227;47.810;8.810;2024-02-28T19:43:36;740.23;;;650.33;;
4428;SDS011;2227;47.810;8.810;2024-02-28T19:46:03;747.70;;;650.17;;
4428;SDS011;2227;47.810;8.810;2024-02-28T19:48:30;754.65;;;649.25;;
4428;SDS011;2227;47.810;8.810;2024-02-28T19:50:57;764.65;;;654.67;;
4428;SDS011;2227;47.810;8.810;2024-02-28T19:53:23;747.45;;;646.40;;
4428;SDS011;2227;47.810;8.810;2024-02-28T19:55:50;740.97;;;645.07;;
4428;SDS011;2227;47.810;8.810;2024-02-28T19:58:17;748.30;;;646.50;;
4428;SDS011;2227;47.810;8.810;2024-02-28T20:00:44;743.30;;;649.10;;
4428;SDS011;2227;47.810;8.810;2024-02-28T20:03:10;749.72;;;644.40;;
4428;SDS011;2227;47.810;8.810;2024-02-28T20:05:37;749.22;;;649.53;;
4428;SDS011;2227;47.810;8.810;2024-02-28T20:08:06;751.53;;;651.83;;